createdAt,value
2023-05-05T00:02:24.575Z,2.95
2023-05-05T00:05:27.098Z,2.50
2023-05-05T00:08:29.717Z,2.72
2023-05-05T00:11:32.209Z,2.50
2023-05-05T00:14:34.657Z,1.95
2023-05-05T00:17:37.240Z,2.70
2023-05-05T00:20:39.834Z,2.70
2023-05-05T00:23:42.283Z,2.38
2023-05-05T00:26:44.782Z,2.37
2023-05-05T00:29:47.426Z,2.63
2023-05-05T00:32:51.077Z,2.25
2023-05-05T00:35:53.461Z,1.97
2023-05-05T00:38:56.534Z,2.22
2023-05-05T00:41:59.454Z,2.47
2023-05-05T00:45:02.246Z,2.40
2023-05-05T00:48:05.704Z,2.63
2023-05-05T00:51:09.667Z,2.42
2023-05-05T00:54:12.184Z,3.00
2023-05-05T00:57:14.685Z,3.00
2023-05-05T01:00:18.074Z,2.75
2023-05-05T01:03:21.005Z,3.38
2023-05-05T01:06:35.226Z,3.37
2023-05-05T01:10:15.645Z,3.10
2023-05-05T01:13:42.696Z,2.88
2023-05-05T01:17:04.509Z,3.63
2023-05-05T01:20:22.418Z,3.05
2023-05-05T01:23:52.542Z,3.13
2023-05-05T01:27:12.948Z,2.70
2023-05-05T01:30:46.301Z,3.23
2023-05-05T01:33:55.091Z,2.92
2023-05-05T01:37:26.968Z,3.00
2023-05-05T01:40:40.505Z,3.40
2023-05-05T01:43:46.131Z,3.47
2023-05-05T01:46:52.012Z,3.85
2023-05-05T01:49:54.802Z,3.60
2023-05-05T01:52:57.795Z,3.28
2023-05-05T01:56:02.153Z,3.65
2023-05-05T01:59:05.586Z,3.58
2023-05-05T02:02:11.259Z,3.70
2023-05-05T02:05:15.549Z,3.28
2023-05-05T02:08:19.258Z,3.83
2023-05-05T02:11:21.889Z,3.00
2023-05-05T02:14:27.114Z,3.13
2023-05-05T02:17:30.513Z,2.70
2023-05-05T02:20:33.990Z,3.58
2023-05-05T02:23:36.526Z,3.22
2023-05-05T02:26:40.715Z,2.60
2023-05-05T02:29:48.992Z,3.30
2023-05-05T02:33:00.052Z,3.27
2023-05-05T02:36:12.411Z,2.95
2023-05-05T02:39:51.609Z,3.53
2023-05-05T02:42:57.425Z,3.97
2023-05-05T02:46:04.595Z,3.83
2023-05-05T02:49:08.603Z,4.60
2023-05-05T02:52:12.976Z,3.97
2023-05-05T02:55:17.108Z,3.90
2023-05-05T02:58:42.846Z,3.50
2023-05-05T03:02:11.985Z,4.00
2023-05-05T03:05:25.261Z,3.63
2023-05-05T03:08:40.980Z,3.70
2023-05-05T03:11:53.310Z,3.65
2023-05-05T03:14:58.543Z,3.80
2023-05-05T03:18:04.019Z,3.78
2023-05-05T03:21:10.225Z,3.30
2023-05-05T03:24:17.341Z,3.72
2023-05-05T03:27:24.887Z,3.90
2023-05-05T03:30:27.529Z,3.90
2023-05-05T03:33:29.932Z,4.00
2023-05-05T03:36:35.888Z,3.30
2023-05-05T03:39:38.899Z,3.72
2023-05-05T03:42:42.933Z,3.55
2023-05-05T03:45:45.437Z,3.30
2023-05-05T03:48:48.760Z,3.60
2023-05-05T03:51:51.437Z,3.88
2023-05-05T03:54:54.661Z,3.97
2023-05-05T03:57:57.084Z,3.65
2023-05-05T04:00:59.586Z,3.75
2023-05-05T04:04:02.517Z,3.75
2023-05-05T04:07:04.976Z,3.90
2023-05-05T04:10:08.650Z,3.83
2023-05-05T04:13:11.975Z,7.70
2023-05-05T04:16:14.916Z,4.93
2023-05-05T04:19:18.018Z,9.45
2023-05-05T04:22:21.211Z,4.95
2023-05-05T04:25:23.709Z,5.05
2023-05-05T04:28:26.341Z,4.53
2023-05-05T04:31:29.065Z,4.18
2023-05-05T04:34:31.491Z,4.57
2023-05-05T04:37:33.872Z,3.60
2023-05-05T04:40:40.138Z,3.80
2023-05-05T04:43:43.808Z,3.80
2023-05-05T04:46:46.280Z,3.80
2023-05-05T04:49:49.762Z,3.72
2023-05-05T04:52:52.882Z,3.92
2023-05-05T04:55:55.772Z,3.30
2023-05-05T04:58:58.303Z,3.70
2023-05-05T05:02:01.264Z,3.97
2023-05-05T05:05:04.105Z,3.97
2023-05-05T05:08:06.540Z,3.40
2023-05-05T05:11:09.048Z,3.60
2023-05-05T05:14:11.497Z,3.60
2023-05-05T05:17:13.907Z,3.63
2023-05-05T05:20:17.340Z,3.60
2023-05-05T05:23:19.765Z,3.42
2023-05-05T05:26:23.290Z,3.75
2023-05-05T05:29:27.136Z,3.75
2023-05-05T05:32:30.358Z,5.53
2023-05-05T05:35:33.122Z,4.15
2023-05-05T05:38:35.798Z,3.47
2023-05-05T05:41:39.738Z,3.50
2023-05-05T05:44:42.777Z,3.10
2023-05-05T05:47:45.299Z,4.13
2023-05-05T05:50:47.996Z,3.25
2023-05-05T05:53:51.884Z,2.90
2023-05-05T05:56:55.082Z,3.25
2023-05-05T05:59:59.244Z,3.50
2023-05-05T06:03:03.120Z,3.72
2023-05-05T06:06:09.030Z,3.00
2023-05-05T06:09:11.496Z,3.23
2023-05-05T06:12:14.100Z,3.35
2023-05-05T06:15:16.584Z,3.40
2023-05-05T06:18:19.272Z,2.97
2023-05-05T06:21:21.776Z,2.53
2023-05-05T06:24:24.279Z,2.88
2023-05-05T06:27:26.640Z,3.42
2023-05-05T06:30:29.198Z,3.58
2023-05-05T06:33:31.638Z,3.13
2023-05-05T06:36:34.057Z,3.33
2023-05-05T06:39:36.496Z,2.93
2023-05-05T06:42:39.297Z,3.40
2023-05-05T06:45:44.813Z,3.17
2023-05-05T06:48:47.593Z,2.60
2023-05-05T06:51:50.093Z,2.83
2023-05-05T06:54:52.486Z,3.30
2023-05-05T06:57:54.963Z,3.47
2023-05-05T07:00:57.404Z,3.00
2023-05-05T07:04:00.343Z,3.30
2023-05-05T07:07:02.945Z,3.30
2023-05-05T07:10:06.276Z,3.00
2023-05-05T07:13:09.051Z,3.65
2023-05-05T07:16:11.543Z,3.10
2023-05-05T07:19:13.983Z,3.53
2023-05-05T07:22:16.572Z,3.55
2023-05-05T07:25:19.139Z,3.63
2023-05-05T07:28:22.447Z,3.58
2023-05-05T07:31:26.409Z,4.63
2023-05-05T07:34:29.062Z,3.45
2023-05-05T07:37:31.599Z,4.47
2023-05-05T07:40:36.913Z,4.60
2023-05-05T07:43:42.820Z,4.28
2023-05-05T07:46:46.981Z,3.72
2023-05-05T07:49:49.397Z,3.53
2023-05-05T07:52:59.371Z,3.10
2023-05-05T07:56:12.910Z,3.47
2023-05-05T07:59:15.570Z,3.40
2023-05-05T08:02:18.282Z,2.95
2023-05-05T08:05:20.799Z,3.72
2023-05-05T08:08:25.066Z,4.00
2023-05-05T08:11:29.613Z,4.00
2023-05-05T08:14:32.872Z,3.60
2023-05-05T08:18:04.398Z,4.00
2023-05-05T08:21:08.837Z,3.67
2023-05-05T08:24:11.309Z,3.63
2023-05-05T08:27:14.176Z,3.75
2023-05-05T08:30:20.797Z,3.40
2023-05-05T08:33:23.168Z,3.90
2023-05-05T08:36:25.639Z,3.97
2023-05-05T08:39:28.384Z,3.75
2023-05-05T08:42:37.736Z,3.63
2023-05-05T08:45:42.112Z,3.47
2023-05-05T08:48:45.935Z,3.30
2023-05-05T08:51:49.839Z,3.57
2023-05-05T08:55:00.280Z,3.15
2023-05-05T08:58:04.295Z,3.50
2023-05-05T09:01:07.538Z,3.63
2023-05-05T09:04:11.041Z,3.30
2023-05-05T09:07:13.792Z,4.15
2023-05-05T09:10:16.411Z,3.65
2023-05-05T09:13:18.874Z,5.07
2023-05-05T09:16:22.537Z,3.33
2023-05-05T09:19:25.149Z,3.33
2023-05-05T09:22:42.206Z,3.60
2023-05-05T09:26:02.430Z,3.10
2023-05-05T09:29:05.755Z,3.03
2023-05-05T09:32:09.029Z,3.83
2023-05-05T09:35:11.717Z,2.65
2023-05-05T09:38:14.200Z,2.70
2023-05-05T09:41:36.760Z,3.80
2023-05-05T09:44:40.684Z,3.07
2023-05-05T09:47:43.090Z,2.97
2023-05-05T09:50:45.776Z,2.58
2023-05-05T09:53:48.283Z,2.75
2023-05-05T09:56:52.334Z,2.93
2023-05-05T09:59:59.723Z,2.90
2023-05-05T10:03:03.120Z,3.03
2023-05-05T10:06:07.794Z,2.63
2023-05-05T10:09:10.876Z,2.63
2023-05-05T10:12:13.462Z,3.00
2023-05-05T10:15:16.277Z,2.85
2023-05-05T10:18:28.770Z,2.53
2023-05-05T10:21:34.263Z,2.30
2023-05-05T10:24:47.176Z,2.13
2023-05-05T10:27:55.575Z,2.38
2023-05-05T10:31:00.587Z,3.53
2023-05-05T10:34:10.461Z,2.50
2023-05-05T10:37:13.207Z,2.40
2023-05-05T10:40:17.753Z,2.80
2023-05-05T10:43:20.944Z,2.47
2023-05-05T10:46:25.604Z,2.80
2023-05-05T10:49:41.138Z,3.00
2023-05-05T10:53:17.389Z,2.70
2023-05-05T10:56:33.819Z,2.80
2023-05-05T10:59:39.058Z,2.28
2023-05-05T11:02:42.029Z,2.80
2023-05-05T11:06:05.613Z,2.75
2023-05-05T11:09:27.866Z,2.38
2023-05-05T11:12:32.693Z,3.08
2023-05-05T11:15:37.694Z,2.20
2023-05-05T11:18:44.418Z,2.63
2023-05-05T11:22:02.516Z,2.20
2023-05-05T11:25:37.580Z,2.20
2023-05-05T11:28:56.752Z,2.00
2023-05-05T11:32:15.880Z,2.20
2023-05-05T11:35:18.764Z,1.45
2023-05-05T11:38:26.966Z,2.28
2023-05-05T11:41:32.186Z,1.97
2023-05-05T11:44:35.746Z,1.85
2023-05-05T11:47:38.218Z,2.25
2023-05-05T11:50:40.849Z,1.70
2023-05-05T11:53:44.943Z,2.03
2023-05-05T11:56:51.231Z,2.60
2023-05-05T11:59:58.075Z,2.47
2023-05-05T12:03:00.969Z,2.97
2023-05-05T12:06:04.654Z,2.33
2023-05-05T12:09:15.457Z,2.60
2023-05-05T12:12:20.166Z,2.80
2023-05-05T12:15:32.380Z,2.03
2023-05-05T12:18:34.715Z,2.43
2023-05-05T12:21:38.316Z,2.30
2023-05-05T12:24:41.114Z,2.40
2023-05-05T12:27:52.067Z,2.70
2023-05-05T12:30:58.973Z,2.22
2023-05-05T12:34:06.112Z,2.30
2023-05-05T12:37:08.542Z,2.63
2023-05-05T12:40:44.876Z,3.07
2023-05-05T12:43:48.036Z,2.25
2023-05-05T12:46:52.945Z,2.53
2023-05-05T12:49:56.090Z,2.40
2023-05-05T12:52:58.580Z,3.13
2023-05-05T12:56:00.990Z,2.47
2023-05-05T12:59:07.718Z,2.53
2023-05-05T13:02:10.207Z,2.20
2023-05-05T13:05:12.654Z,1.85
2023-05-05T13:08:15.134Z,2.58
2023-05-05T13:11:18.599Z,2.27
2023-05-05T13:14:22.322Z,2.47
2023-05-05T13:17:25.007Z,2.20
2023-05-05T13:20:27.731Z,2.60
2023-05-05T13:23:30.703Z,2.95
2023-05-05T13:26:33.259Z,2.47
2023-05-05T13:29:35.865Z,2.50
2023-05-05T13:32:38.334Z,1.90
2023-05-05T13:35:41.316Z,2.70
2023-05-05T13:38:43.892Z,1.90
2023-05-05T13:41:46.598Z,2.30
2023-05-05T13:44:49.105Z,2.20
2023-05-05T13:47:51.663Z,2.15
2023-05-05T13:50:54.027Z,2.05
2023-05-05T13:53:57.009Z,2.72
2023-05-05T13:57:00.055Z,2.20
2023-05-05T14:00:04.130Z,2.45
2023-05-05T14:03:09.857Z,2.20
2023-05-05T14:06:12.275Z,2.25
2023-05-05T14:09:14.887Z,1.98
2023-05-05T14:12:17.327Z,2.10
2023-05-05T14:15:19.766Z,1.83
2023-05-05T14:18:22.794Z,1.48
2023-05-05T14:21:25.245Z,1.65
2023-05-05T14:24:27.756Z,1.85
2023-05-05T14:27:30.225Z,2.08
2023-05-05T14:30:32.743Z,2.85
2023-05-05T14:33:35.243Z,1.70
2023-05-05T14:36:37.620Z,1.90
2023-05-05T14:39:40.163Z,2.28
2023-05-05T14:42:42.856Z,2.63
2023-05-05T14:45:45.397Z,2.17
2023-05-05T14:48:48.406Z,2.22
2023-05-05T14:51:50.870Z,2.10
2023-05-05T14:54:53.533Z,2.30
2023-05-05T14:57:56.107Z,2.22
2023-05-05T15:00:58.987Z,1.88
2023-05-05T15:04:01.533Z,1.60
2023-05-05T15:07:04.360Z,1.88
2023-05-05T15:10:07.665Z,2.00
2023-05-05T15:13:10.152Z,1.97
2023-05-05T15:16:12.664Z,1.92
2023-05-05T15:19:15.120Z,2.10
2023-05-05T15:22:17.818Z,1.52
2023-05-05T15:25:20.664Z,2.00
2023-05-05T15:28:24.265Z,1.20
2023-05-05T15:31:26.732Z,1.58
2023-05-05T15:34:29.291Z,1.30
2023-05-05T15:37:31.850Z,1.30
2023-05-05T15:40:34.415Z,1.33
2023-05-05T15:43:36.834Z,1.40
2023-05-05T15:46:39.805Z,1.48
2023-05-05T15:49:42.375Z,1.95
2023-05-05T15:52:44.791Z,2.13
2023-05-05T15:55:47.270Z,2.60
2023-05-05T15:58:55.621Z,2.63
2023-05-05T16:02:03.123Z,3.22
2023-05-05T16:05:10.185Z,2.40
2023-05-05T16:08:15.024Z,2.47
2023-05-05T16:11:17.542Z,2.50
2023-05-05T16:14:20.328Z,2.03
2023-05-05T16:17:22.902Z,2.42
2023-05-05T16:20:25.345Z,2.35
2023-05-05T16:23:27.744Z,2.28
2023-05-05T16:26:30.177Z,2.50
2023-05-05T16:29:32.599Z,2.35
2023-05-05T16:32:35.032Z,3.28
2023-05-05T16:35:37.474Z,3.03
2023-05-05T16:38:40.564Z,2.70
2023-05-05T16:42:03.877Z,2.60
2023-05-05T16:45:09.435Z,2.17
2023-05-05T16:48:13.781Z,2.53
2023-05-05T16:51:16.226Z,3.00
2023-05-05T16:54:18.611Z,2.53
2023-05-05T16:57:23.948Z,2.33
2023-05-05T17:00:26.468Z,2.58
2023-05-05T17:03:29.083Z,2.63
2023-05-05T17:06:34.286Z,2.40
2023-05-05T17:09:36.816Z,2.60
2023-05-05T17:12:39.306Z,2.28
2023-05-05T17:15:42.000Z,5.07
2023-05-05T17:18:44.521Z,3.35
2023-05-05T17:21:47.079Z,3.83
2023-05-05T17:24:49.494Z,3.83
2023-05-05T17:27:52.838Z,3.50
2023-05-05T17:30:55.334Z,3.60
2023-05-05T17:33:57.830Z,3.50
2023-05-05T17:37:00.327Z,2.60
2023-05-05T17:40:03.353Z,2.60
2023-05-05T17:43:05.754Z,2.15
2023-05-05T17:46:08.204Z,2.13
2023-05-05T17:49:10.586Z,2.05
2023-05-05T17:52:13.122Z,1.90
2023-05-05T17:55:15.736Z,1.92
2023-05-05T17:58:18.216Z,1.80
2023-05-05T18:01:25.212Z,2.05
2023-05-05T18:04:28.537Z,2.75
2023-05-05T18:07:30.924Z,2.50
2023-05-05T18:10:33.352Z,2.72
2023-05-05T18:13:35.992Z,2.55
2023-05-05T18:16:38.467Z,2.90
2023-05-05T18:19:46.153Z,2.72
2023-05-05T18:22:50.447Z,3.78
2023-05-05T18:25:52.841Z,5.30
2023-05-05T18:28:55.198Z,3.40
2023-05-05T18:31:57.664Z,4.80
2023-05-05T18:35:00.097Z,9.82
2023-05-05T18:38:03.364Z,8.63
2023-05-05T18:41:05.799Z,5.43
2023-05-05T18:44:08.362Z,3.45
2023-05-05T18:47:10.810Z,3.07
2023-05-05T18:50:13.616Z,3.40
2023-05-05T18:53:17.721Z,2.45
2023-05-05T18:56:21.536Z,3.30
2023-05-05T18:59:23.995Z,3.22
2023-05-05T19:02:26.980Z,2.70
2023-05-05T19:05:29.729Z,2.60
2023-05-05T19:08:32.158Z,2.47
2023-05-05T19:11:34.633Z,2.20
2023-05-05T19:14:37.107Z,2.50
2023-05-05T19:17:39.969Z,2.80
2023-05-05T19:20:43.596Z,3.47
2023-05-05T19:23:46.188Z,3.20
2023-05-05T19:26:48.750Z,3.30
2023-05-05T19:29:52.644Z,3.55
2023-05-05T19:32:55.617Z,3.80
2023-05-05T19:35:58.187Z,3.30
2023-05-05T19:39:01.930Z,3.27
2023-05-05T19:42:04.965Z,2.95
2023-05-05T19:45:07.934Z,3.75
2023-05-05T19:48:10.562Z,3.93
2023-05-05T19:51:13.199Z,4.47
2023-05-05T19:54:16.281Z,3.70
2023-05-05T19:57:18.858Z,4.57
2023-05-05T20:00:21.653Z,4.35
2023-05-05T20:03:24.108Z,4.72
2023-05-05T20:06:27.111Z,4.57
2023-05-05T20:09:29.809Z,3.17
2023-05-05T20:12:32.403Z,3.28
2023-05-05T20:15:34.984Z,2.78
2023-05-05T20:18:37.520Z,2.87
2023-05-05T20:21:40.218Z,2.47
2023-05-05T20:24:42.669Z,2.58
2023-05-05T20:27:45.829Z,3.03
2023-05-05T20:30:48.347Z,2.35
2023-05-05T20:33:51.088Z,2.70
2023-05-05T20:36:54.371Z,2.10
2023-05-05T20:39:58.236Z,2.40
2023-05-05T20:43:00.686Z,2.63
2023-05-05T20:46:03.274Z,5.78
2023-05-05T20:49:06.072Z,2.73
2023-05-05T20:52:09.293Z,2.50
2023-05-05T20:55:11.706Z,2.42
2023-05-05T20:58:14.124Z,2.55
2023-05-05T21:01:16.978Z,2.65
2023-05-05T21:04:19.610Z,2.30
2023-05-05T21:07:21.969Z,2.47
2023-05-05T21:10:24.434Z,2.53
2023-05-05T21:13:27.589Z,2.83
2023-05-05T21:16:29.970Z,2.85
2023-05-05T21:19:32.559Z,3.03
2023-05-05T21:22:35.234Z,3.40
2023-05-05T21:25:37.667Z,3.70
2023-05-05T21:28:40.093Z,3.40
2023-05-05T21:31:42.500Z,6.22
2023-05-05T21:34:45.438Z,3.88
2023-05-05T21:37:48.878Z,3.35
2023-05-05T21:40:58.925Z,3.30
2023-05-05T21:44:01.348Z,3.97
2023-05-05T21:47:05.433Z,3.85
2023-05-05T21:50:09.716Z,3.67
2023-05-05T21:53:12.279Z,3.80
2023-05-05T21:56:14.670Z,4.95
2023-05-05T21:59:17.430Z,4.25
2023-05-05T22:02:20.128Z,5.22
2023-05-05T22:05:23.152Z,4.78
2023-05-05T22:08:25.514Z,4.13
2023-05-05T22:11:28.227Z,4.03
2023-05-05T22:14:30.634Z,4.13
2023-05-05T22:17:33.023Z,4.05
2023-05-05T22:20:35.495Z,3.83
2023-05-05T22:23:39.137Z,4.20
2023-05-05T22:26:43.349Z,3.85
2023-05-05T22:29:46.627Z,4.13
2023-05-05T22:32:49.174Z,4.30
2023-05-05T22:35:52.092Z,4.82
2023-05-05T22:38:54.952Z,4.10
2023-05-05T22:41:58.111Z,3.57
2023-05-05T22:45:01.099Z,4.05
2023-05-05T22:48:03.868Z,3.95
2023-05-05T22:51:06.562Z,3.63
2023-05-05T22:54:09.323Z,3.40
2023-05-05T22:57:11.848Z,3.25
2023-05-05T23:00:14.675Z,4.13
2023-05-05T23:03:17.127Z,3.45
2023-05-05T23:06:19.639Z,3.50
2023-05-05T23:09:22.106Z,3.50
2023-05-05T23:12:24.591Z,3.60
2023-05-05T23:15:27.518Z,3.25
2023-05-05T23:18:29.907Z,2.92
2023-05-05T23:21:36.259Z,3.13
2023-05-05T23:24:44.686Z,3.05
2023-05-05T23:27:47.984Z,3.00
2023-05-05T23:30:50.528Z,2.88
2023-05-05T23:33:53.005Z,2.80
2023-05-05T23:36:55.941Z,2.85
2023-05-05T23:39:58.376Z,2.90
2023-05-05T23:43:01.106Z,3.20
2023-05-05T23:46:03.583Z,2.75
2023-05-05T23:49:06.226Z,3.00
2023-05-05T23:52:08.745Z,2.87
2023-05-05T23:55:11.606Z,2.80
2023-05-05T23:58:14.159Z,2.38
